Wetterdaten: Woche 30.10.17 - 05.11.17 (KW44)
Datum Zeit Temp. A. Feuchte A. Luftdruck Regen Wind Richtung Taupunkt Windchill Windben
30.10.2017 00:00 0,2 C 96 % 1021,1 hPa 0,0 l/m 0,0 km/h (0 Bft) SO -0,3 C 0,2 C 0,1 km/h (0 Bft)
30.10.2017 01:00 0,0 C 97 % 1021,4 hPa 0,0 l/m 0,4 km/h (0 Bft) SO -0,4 C 0,0 C 1,9 km/h (1 Bft)
30.10.2017 02:00 0,4 C 97 % 1021,9 hPa 0,0 l/m 0,1 km/h (0 Bft) O-SO -0,0 C 0,4 C 0,7 km/h (0 Bft)
30.10.2017 03:00 0,4 C 98 % 1022,2 hPa 0,0 l/m 0,0 km/h (0 Bft) O-SO 0,0 C 0,4 C 0,1 km/h (0 Bft)
30.10.2017 04:00 0,3 C 97 % 1022,9 hPa 0,0 l/m 0,0 km/h (0 Bft) O-SO -0,1 C 0,3 C 0,8 km/h (0 Bft)
30.10.2017 05:00 0,5 C 98 % 1023,3 hPa 0,0 l/m 0,2 km/h (0 Bft) O-SO 0,2 C 0,5 C 1,9 km/h (1 Bft)
30.10.2017 06:00 0,6 C 98 % 1023,7 hPa 0,0 l/m 0,1 km/h (0 Bft) O-SO 0,3 C 0,6 C 0,9 km/h (0 Bft)
30.10.2017 07:00 0,7 C 98 % 1024,4 hPa 0,0 l/m 0,1 km/h (0 Bft) O-SO 0,4 C 0,7 C 1,2 km/h (1 Bft)
30.10.2017 08:00 0,9 C 98 % 1025,1 hPa 0,0 l/m 0,7 km/h (0 Bft) O 0,6 C 0,9 C 2,8 km/h (1 Bft)
30.10.2017 09:00 2,3 C 98 % 1025,5 hPa 0,0 l/m 1,0 km/h (0 Bft) NO 2,0 C 2,3 C 3,5 km/h (1 Bft)
30.10.2017 10:00 4,4 C 97 % 1025,8 hPa 0,0 l/m 0,8 km/h (0 Bft) W 3,9 C 4,4 C 3,6 km/h (1 Bft)
30.10.2017 11:00 6,1 C 84 % 1025,9 hPa 0,0 l/m 1,4 km/h (1 Bft) S 3,6 C 6,1 C 4,0 km/h (1 Bft)
30.10.2017 12:00 7,2 C 75 % 1025,8 hPa 0,0 l/m 1,5 km/h (1 Bft) S-SW 3,1 C 7,2 C 4,6 km/h (1 Bft)
30.10.2017 13:00 7,2 C 72 % 1026,0 hPa 0,0 l/m 1,6 km/h (1 Bft) SW 2,5 C 7,2 C 4,5 km/h (1 Bft)
30.10.2017 14:00 6,8 C 70 % 1026,3 hPa 0,0 l/m 0,9 km/h (0 Bft) S-SW 1,7 C 6,8 C 3,6 km/h (1 Bft)
30.10.2017 15:00 6,4 C 76 % 1026,5 hPa 0,0 l/m 1,0 km/h (0 Bft) O 2,5 C 6,4 C 3,6 km/h (1 Bft)
30.10.2017 16:00 6,0 C 83 % 1026,9 hPa 0,0 l/m 0,3 km/h (0 Bft) O 3,3 C 6,0 C 0,9 km/h (0 Bft)
30.10.2017 17:00 4,4 C 88 % 1027,4 hPa 0,0 l/m 0,2 km/h (0 Bft) O 2,7 C 4,4 C 1,1 km/h (0 Bft)
30.10.2017 18:00 2,6 C 91 % 1028,1 hPa 0,0 l/m 0,0 km/h (0 Bft) O 1,2 C 2,6 C 0,5 km/h (0 Bft)
30.10.2017 19:00 1,0 C 93 % 1028,4 hPa 0,0 l/m 0,0 km/h (0 Bft) O -0,0 C 1,0 C 0,0 km/h (0 Bft)
30.10.2017 20:00 -0,3 C 94 % 1028,7 hPa 0,0 l/m 0,0 km/h (0 Bft) O -1,2 C -0,3 C 0,3 km/h (0 Bft)
30.10.2017 21:00 -1,2 C 95 % 1029,0 hPa 0,0 l/m 0,0 km/h (0 Bft) O -1,9 C -1,2 C 0,1 km/h (0 Bft)
30.10.2017 22:00 -1,6 C 95 % 1029,2 hPa 0,0 l/m 0,0 km/h (0 Bft) O -2,3 C -1,6 C 0,0 km/h (0 Bft)
30.10.2017 23:00 -1,9 C 96 % 1029,0 hPa 0,0 l/m 0,0 km/h (0 Bft) O -2,4 C -1,9 C 0,0 km/h (0 Bft)
31.10.2017 00:00 -2,2 C 96 % 1028,9 hPa 0,0 l/m 0,0 km/h (0 Bft) O -2,7 C -2,2 C 0,0 km/h (0 Bft)
31.10.2017 01:00 -2,3 C 96 % 1028,6 hPa 0,0 l/m 0,0 km/h (0 Bft) O -2,9 C -2,3 C 0,0 km/h (0 Bft)
31.10.2017 02:00 -2,8 C 96 % 1028,6 hPa 0,0 l/m 0,0 km/h (0 Bft) O -3,3 C -2,8 C 0,0 km/h (0 Bft)
31.10.2017 03:00 -3,1 C 96 % 1028,5 hPa 0,0 l/m 0,0 km/h (0 Bft) O -3,6 C -3,1 C 0,0 km/h (0 Bft)
31.10.2017 04:00 -3,1 C 96 % 1028,5 hPa 0,0 l/m 0,0 km/h (0 Bft) O -3,6 C -3,1 C 0,0 km/h (0 Bft)
31.10.2017 05:00 -3,3 C 96 % 1028,7 hPa 0,0 l/m 0,0 km/h (0 Bft) O -3,8 C -3,3 C 0,0 km/h (0 Bft)
31.10.2017 06:00 -3,4 C 96 % 1028,5 hPa 0,0 l/m 0,0 km/h (0 Bft) O -4,0 C -3,4 C 0,0 km/h (0 Bft)
31.10.2017 07:00 -3,5 C 96 % 1028,7 hPa 0,0 l/m 0,0 km/h (0 Bft) O -4,1 C -3,5 C 0,0 km/h (0 Bft)
31.10.2017 08:00 -1,9 C 97 % 1029,0 hPa 0,3 l/m 0,0 km/h (0 Bft) O -2,3 C -1,9 C 0,4 km/h (0 Bft)
31.10.2017 09:00 1,0 C 94 % 1029,1 hPa 0,0 l/m 0,5 km/h (0 Bft) O 0,2 C 1,0 C 2,3 km/h (1 Bft)
31.10.2017 10:00 4,3 C 89 % 1028,9 hPa 0,0 l/m 1,5 km/h (1 Bft) O 2,7 C 4,3 C 3,5 km/h (1 Bft)
31.10.2017 11:00 6,9 C 76 % 1028,6 hPa 0,0 l/m 2,3 km/h (1 Bft) NW 2,9 C 6,9 C 5,3 km/h (1 Bft)
31.10.2017 12:00 7,5 C 71 % 1028,2 hPa 0,0 l/m 2,2 km/h (1 Bft) SW 2,6 C 7,5 C 4,9 km/h (1 Bft)
31.10.2017 13:00 8,7 C 66 % 1027,7 hPa 0,0 l/m 2,6 km/h (1 Bft) NW 2,6 C 8,7 C 6,1 km/h (2 Bft)
31.10.2017 14:00 9,4 C 62 % 1027,4 hPa 0,0 l/m 1,6 km/h (1 Bft) NO 2,4 C 9,4 C 4,8 km/h (1 Bft)
31.10.2017 15:00 9,2 C 61 % 1027,2 hPa 0,0 l/m 1,5 km/h (1 Bft) N-NW 2,1 C 9,2 C 4,7 km/h (1 Bft)
31.10.2017 16:00 8,2 C 68 % 1026,9 hPa 0,0 l/m 0,1 km/h (0 Bft) N 2,6 C 8,2 C 0,7 km/h (0 Bft)
31.10.2017 17:00 4,0 C 83 % 1027,1 hPa 0,0 l/m 0,0 km/h (0 Bft) N 1,5 C 4,0 C 0,0 km/h (0 Bft)
31.10.2017 18:00 1,5 C 90 % 1027,4 hPa 0,0 l/m 0,0 km/h (0 Bft) N 0,0 C 1,5 C 0,0 km/h (0 Bft)
31.10.2017 19:00 0,4 C 93 % 1027,7 hPa 0,0 l/m 0,0 km/h (0 Bft) N -0,6 C 0,4 C 0,0 km/h (0 Bft)
31.10.2017 20:00 -0,3 C 94 % 1027,5 hPa 0,0 l/m 0,0 km/h (0 Bft) N -1,2 C -0,3 C 0,0 km/h (0 Bft)
31.10.2017 21:00 -0,9 C 94 % 1027,7 hPa 0,0 l/m 0,0 km/h (0 Bft) N -1,6 C -0,9 C 0,0 km/h (0 Bft)
31.10.2017 22:00 -1,1 C 95 % 1027,5 hPa 0,0 l/m 0,0 km/h (0 Bft) NW -1,8 C -1,1 C 0,0 km/h (0 Bft)
31.10.2017 23:00 -1,3 C 96 % 1027,3 hPa 0,0 l/m 0,0 km/h (0 Bft) NW -2,0 C -1,3 C 0,0 km/h (0 Bft)
01.11.2017 00:00 -1,4 C 96 % 1027,0 hPa 0,0 l/m 0,0 km/h (0 Bft) NW -2,0 C -1,4 C 0,0 km/h (0 Bft)
01.11.2017 01:00 -1,0 C 97 % 1026,8 hPa 0,0 l/m 0,0 km/h (0 Bft) NW -1,5 C -1,0 C 0,0 km/h (0 Bft)
01.11.2017 02:00 -0,5 C 97 % 1026,6 hPa 0,0 l/m 0,0 km/h (0 Bft) NW -1,0 C -0,5 C 0,0 km/h (0 Bft)
01.11.2017 03:00 0,2 C 97 % 1026,4 hPa 0,0 l/m 0,0 km/h (0 Bft) NW -0,2 C 0,2 C 0,0 km/h (0 Bft)
01.11.2017 04:00 0,9 C 97 % 1026,1 hPa 0,3 l/m 0,0 km/h (0 Bft) NW 0,4 C 0,9 C 0,0 km/h (0 Bft)
01.11.2017 05:00 1,2 C 96 % 1025,8 hPa 0,0 l/m 0,0 km/h (0 Bft) NW 0,6 C 1,2 C 0,0 km/h (0 Bft)
01.11.2017 06:00 1,6 C 97 % 1025,6 hPa 0,0 l/m 0,0 km/h (0 Bft) NW 1,1 C 1,6 C 0,0 km/h (0 Bft)
01.11.2017 07:00 2,3 C 96 % 1025,6 hPa 0,0 l/m 0,7 km/h (0 Bft) O-NO 1,7 C 2,3 C 2,9 km/h (1 Bft)
01.11.2017 08:00 3,5 C 94 % 1025,8 hPa 0,0 l/m 0,3 km/h (0 Bft) N 2,6 C 3,5 C 2,0 km/h (1 Bft)
01.11.2017 09:00 6,0 C 86 % 1025,8 hPa 0,0 l/m 0,7 km/h (0 Bft) N 3,9 C 6,0 C 2,5 km/h (1 Bft)
01.11.2017 10:00 10,2 C 72 % 1025,5 hPa 0,0 l/m 2,1 km/h (1 Bft) NO 5,4 C 10,2 C 4,9 km/h (1 Bft)
01.11.2017 11:00 13,1 C 58 % 1024,8 hPa 0,0 l/m 2,5 km/h (1 Bft) O-NO 5,0 C 13,1 C 5,7 km/h (2 Bft)
01.11.2017 12:00 14,4 C 57 % 1024,3 hPa 0,0 l/m 2,8 km/h (1 Bft) NO 5,9 C 14,4 C 6,3 km/h (2 Bft)
01.11.2017 13:00 15,8 C 56 % 1023,5 hPa 0,0 l/m 3,7 km/h (1 Bft) NO 7,2 C 15,8 C 7,6 km/h (2 Bft)
01.11.2017 14:00 16,9 C 58 % 1022,8 hPa 0,0 l/m 2,9 km/h (1 Bft) NO 8,5 C 16,9 C 6,7 km/h (2 Bft)
01.11.2017 15:00 17,2 C 58 % 1022,4 hPa 0,0 l/m 1,8 km/h (1 Bft) O 8,8 C 17,2 C 4,5 km/h (1 Bft)
01.11.2017 16:00 14,4 C 69 % 1022,1 hPa 0,0 l/m 0,2 km/h (0 Bft) O 8,6 C 14,4 C 1,9 km/h (1 Bft)
01.11.2017 17:00 9,5 C 84 % 1021,9 hPa 0,0 l/m 0,1 km/h (0 Bft) O 6,9 C 9,5 C 0,7 km/h (0 Bft)
01.11.2017 18:00 7,0 C 91 % 1022,1 hPa 0,0 l/m 0,1 km/h (0 Bft) O 5,5 C 7,0 C 0,8 km/h (0 Bft)
01.11.2017 19:00 5,6 C 93 % 1022,0 hPa 0,0 l/m 0,0 km/h (0 Bft) O 4,4 C 5,6 C 0,1 km/h (0 Bft)
01.11.2017 20:00 4,7 C 94 % 1021,6 hPa 0,0 l/m 0,0 km/h (0 Bft) O 3,9 C 4,7 C 0,1 km/h (0 Bft)
01.11.2017 21:00 4,1 C 95 % 1021,3 hPa 0,0 l/m 0,0 km/h (0 Bft) O 3,3 C 4,1 C 0,0 km/h (0 Bft)
01.11.2017 22:00 3,7 C 96 % 1020,8 hPa 0,0 l/m 0,1 km/h (0 Bft) O 3,1 C 3,7 C 0,7 km/h (0 Bft)
01.11.2017 23:00 3,7 C 96 % 1020,2 hPa 0,0 l/m 0,0 km/h (0 Bft) O 3,2 C 3,7 C 0,6 km/h (0 Bft)
02.11.2017 00:00 3,6 C 96 % 1019,8 hPa 0,0 l/m 0,0 km/h (0 Bft) O 3,0 C 3,6 C 0,0 km/h (0 Bft)
02.11.2017 01:00 3,3 C 96 % 1019,0 hPa 0,0 l/m 0,0 km/h (0 Bft) O 2,7 C 3,3 C 0,3 km/h (0 Bft)
02.11.2017 02:00 3,8 C 97 % 1018,5 hPa 0,0 l/m 0,0 km/h (0 Bft) O 3,4 C 3,8 C 0,3 km/h (0 Bft)
02.11.2017 03:00 3,8 C 97 % 1018,0 hPa 0,0 l/m 0,2 km/h (0 Bft) O 3,3 C 3,8 C 1,2 km/h (1 Bft)
02.11.2017 04:00 6,4 C 91 % 1017,4 hPa 0,0 l/m 1,7 km/h (1 Bft) O 5,1 C 6,4 C 6,0 km/h (2 Bft)
02.11.2017 05:00 8,3 C 80 % 1017,0 hPa 0,0 l/m 2,1 km/h (1 Bft) O-NO 5,0 C 8,3 C 7,4 km/h (2 Bft)
02.11.2017 06:00 8,6 C 78 % 1016,7 hPa 0,0 l/m 3,7 km/h (1 Bft) O-NO 5,0 C 8,6 C 9,4 km/h (2 Bft)
02.11.2017 07:00 8,8 C 78 % 1016,8 hPa 0,0 l/m 3,8 km/h (1 Bft) O-NO 5,1 C 8,7 C 11,0 km/h (2 Bft)
02.11.2017 08:00 8,7 C 79 % 1017,0 hPa 0,0 l/m 2,3 km/h (1 Bft) NO 5,4 C 8,7 C 6,6 km/h (2 Bft)
02.11.2017 09:00 9,1 C 80 % 1017,1 hPa 0,0 l/m 1,7 km/h (1 Bft) O-NO 5,8 C 9,1 C 5,5 km/h (2 Bft)
02.11.2017 10:00 9,7 C 78 % 1016,8 hPa 0,0 l/m 3,1 km/h (1 Bft) O 6,0 C 9,7 C 8,8 km/h (2 Bft)
02.11.2017 11:00 10,4 C 76 % 1016,5 hPa 0,0 l/m 5,4 km/h (1 Bft) NO 6,3 C 10,3 C 12,4 km/h (2 Bft)
02.11.2017 12:00 11,0 C 75 % 1016,1 hPa 0,0 l/m 5,9 km/h (2 Bft) NO 6,7 C 10,9 C 13,2 km/h (3 Bft)
02.11.2017 13:00 11,5 C 73 % 1015,3 hPa 0,0 l/m 6,3 km/h (2 Bft) O-NO 6,9 C 11,3 C 16,9 km/h (3 Bft)
02.11.2017 14:00 11,7 C 73 % 1015,1 hPa 0,0 l/m 5,3 km/h (1 Bft) O-NO 6,9 C 11,5 C 16,4 km/h (3 Bft)
02.11.2017 15:00 11,6 C 74 % 1015,4 hPa 0,0 l/m 6,1 km/h (2 Bft) NO 7,1 C 11,4 C 17,2 km/h (3 Bft)
02.11.2017 16:00 11,2 C 76 % 1015,5 hPa 0,0 l/m 5,8 km/h (2 Bft) O-NO 7,1 C 11,0 C 15,0 km/h (3 Bft)
02.11.2017 17:00 10,8 C 79 % 1015,8 hPa 0,0 l/m 3,0 km/h (1 Bft) O 7,2 C 10,8 C 9,0 km/h (2 Bft)
02.11.2017 18:00 10,5 C 81 % 1016,3 hPa 0,0 l/m 1,3 km/h (1 Bft) O-NO 7,3 C 10,5 C 6,0 km/h (2 Bft)
02.11.2017 19:00 10,3 C 82 % 1016,6 hPa 0,0 l/m 1,0 km/h (0 Bft) O-NO 7,3 C 10,3 C 4,7 km/h (1 Bft)
02.11.2017 20:00 10,0 C 85 % 1016,9 hPa 0,0 l/m 0,9 km/h (0 Bft) O 7,6 C 10,0 C 4,1 km/h (1 Bft)
02.11.2017 21:00 9,6 C 88 % 1017,1 hPa 0,0 l/m 0,9 km/h (0 Bft) O 7,8 C 9,6 C 4,4 km/h (1 Bft)
02.11.2017 22:00 9,5 C 90 % 1017,1 hPa 0,0 l/m 1,3 km/h (1 Bft) O-NO 7,9 C 9,5 C 5,6 km/h (2 Bft)
02.11.2017 23:00 9,4 C 90 % 1017,0 hPa 0,0 l/m 0,5 km/h (0 Bft) N 7,8 C 9,4 C 2,5 km/h (1 Bft)
03.11.2017 00:00 9,2 C 91 % 1017,0 hPa 0,0 l/m 0,0 km/h (0 Bft) O 7,9 C 9,2 C 0,0 km/h (0 Bft)
03.11.2017 01:00 8,9 C 92 % 1016,9 hPa 0,0 l/m 0,0 km/h (0 Bft) O 7,6 C 8,9 C 0,3 km/h (0 Bft)
03.11.2017 02:00 8,7 C 92 % 1016,8 hPa 0,0 l/m 0,0 km/h (0 Bft) O 7,6 C 8,7 C 0,3 km/h (0 Bft)
03.11.2017 03:00 8,5 C 93 % 1016,7 hPa 0,0 l/m 0,0 km/h (0 Bft) O 7,5 C 8,5 C 0,0 km/h (0 Bft)
03.11.2017 04:00 8,3 C 94 % 1016,5 hPa 0,0 l/m 0,0 km/h (0 Bft) O 7,4 C 8,3 C 0,3 km/h (0 Bft)
03.11.2017 05:00 7,9 C 95 % 1016,6 hPa 0,0 l/m 0,1 km/h (0 Bft) O-SO 7,0 C 7,9 C 0,8 km/h (0 Bft)
03.11.2017 06:00 7,6 C 95 % 1016,6 hPa 0,0 l/m 0,0 km/h (0 Bft) O-SO 6,9 C 7,6 C 0,3 km/h (0 Bft)
03.11.2017 07:00 7,7 C 95 % 1016,7 hPa 0,0 l/m 0,1 km/h (0 Bft) O 6,9 C 7,7 C 0,9 km/h (0 Bft)
03.11.2017 08:00 8,0 C 95 % 1016,9 hPa 0,0 l/m 0,0 km/h (0 Bft) O 7,2 C 8,0 C 0,0 km/h (0 Bft)
03.11.2017 09:00 9,2 C 92 % 1016,6 hPa 0,0 l/m 0,5 km/h (0 Bft) O 8,0 C 9,2 C 1,3 km/h (1 Bft)
03.11.2017 10:00 11,8 C 81 % 1016,5 hPa 0,0 l/m 2,1 km/h (1 Bft) NO 8,6 C 11,8 C 6,0 km/h (2 Bft)
03.11.2017 11:00 13,4 C 70 % 1015,9 hPa 0,0 l/m 2,2 km/h (1 Bft) N-NO 8,0 C 13,4 C 5,7 km/h (2 Bft)
03.11.2017 12:00 13,6 C 66 % 1015,5 hPa 0,0 l/m 2,4 km/h (1 Bft) N-NO 7,4 C 13,6 C 5,3 km/h (1 Bft)
03.11.2017 13:00 13,9 C 66 % 1015,0 hPa 0,0 l/m 2,2 km/h (1 Bft) NO 7,6 C 13,9 C 5,9 km/h (2 Bft)
03.11.2017 14:00 15,1 C 63 % 1014,4 hPa 0,0 l/m 2,2 km/h (1 Bft) W-NW 8,0 C 15,1 C 5,3 km/h (1 Bft)
03.11.2017 15:00 14,6 C 64 % 1014,1 hPa 0,0 l/m 1,7 km/h (1 Bft) W 8,0 C 14,6 C 4,5 km/h (1 Bft)
03.11.2017 16:00 13,1 C 71 % 1013,8 hPa 0,0 l/m 0,3 km/h (0 Bft) W 8,0 C 13,1 C 1,5 km/h (1 Bft)
03.11.2017 17:00 9,4 C 84 % 1013,7 hPa 0,0 l/m 0,0 km/h (0 Bft) W 6,7 C 9,4 C 0,0 km/h (0 Bft)
03.11.2017 18:00 6,8 C 91 % 1013,8 hPa 0,0 l/m 0,0 km/h (0 Bft) W 5,4 C 6,8 C 0,4 km/h (0 Bft)
03.11.2017 19:00 5,2 C 92 % 1013,6 hPa 0,0 l/m 0,0 km/h (0 Bft) W 4,0 C 5,2 C 0,0 km/h (0 Bft)
03.11.2017 20:00 4,0 C 94 % 1013,6 hPa 0,0 l/m 0,0 km/h (0 Bft) W 3,2 C 4,0 C 0,3 km/h (0 Bft)
03.11.2017 21:00 3,4 C 95 % 1013,7 hPa 0,0 l/m 0,0 km/h (0 Bft) W 2,7 C 3,4 C 0,0 km/h (0 Bft)
03.11.2017 22:00 2,6 C 95 % 1013,7 hPa 0,0 l/m 0,0 km/h (0 Bft) W 2,0 C 2,6 C 0,0 km/h (0 Bft)
03.11.2017 23:00 2,3 C 96 % 1013,6 hPa 0,0 l/m 0,0 km/h (0 Bft) W 1,7 C 2,3 C 0,1 km/h (0 Bft)
04.11.2017 00:00 2,2 C 96 % 1013,5 hPa 0,0 l/m 0,0 km/h (0 Bft) W 1,7 C 2,2 C 0,1 km/h (0 Bft)
04.11.2017 01:00 2,2 C 96 % 1013,3 hPa 0,0 l/m 0,0 km/h (0 Bft) W 1,6 C 2,2 C 0,3 km/h (0 Bft)
04.11.2017 02:00 1,9 C 97 % 1013,1 hPa 0,0 l/m 0,0 km/h (0 Bft) W 1,4 C 1,9 C 0,3 km/h (0 Bft)
04.11.2017 03:00 2,4 C 97 % 1012,9 hPa 0,0 l/m 0,1 km/h (0 Bft) W 2,0 C 2,4 C 0,9 km/h (0 Bft)
04.11.2017 04:00 3,1 C 97 % 1012,8 hPa 0,0 l/m 0,0 km/h (0 Bft) W 2,7 C 3,1 C 0,7 km/h (0 Bft)
04.11.2017 05:00 3,5 C 97 % 1012,5 hPa 0,0 l/m 0,0 km/h (0 Bft) W 3,1 C 3,5 C 0,5 km/h (0 Bft)
04.11.2017 06:00 3,6 C 97 % 1012,4 hPa 0,0 l/m 0,1 km/h (0 Bft) W 3,2 C 3,6 C 1,2 km/h (1 Bft)
04.11.2017 07:00 5,2 C 98 % 1012,4 hPa 0,0 l/m 0,6 km/h (0 Bft) O-NO 4,9 C 5,2 C 3,9 km/h (1 Bft)
04.11.2017 08:00 6,7 C 97 % 1012,6 hPa 0,0 l/m 0,5 km/h (0 Bft) O-SO 6,2 C 6,7 C 2,9 km/h (1 Bft)
04.11.2017 09:00 9,1 C 92 % 1012,5 hPa 0,0 l/m 0,5 km/h (0 Bft) W-NW 7,9 C 9,1 C 2,5 km/h (1 Bft)
04.11.2017 10:00 12,8 C 81 % 1012,3 hPa 0,0 l/m 4,8 km/h (1 Bft) N-NO 9,7 C 12,6 C 13,8 km/h (3 Bft)
04.11.2017 11:00 15,0 C 73 % 1012,1 hPa 0,0 l/m 8,3 km/h (2 Bft) NO 10,3 C 14,0 C 17,5 km/h (3 Bft)
04.11.2017 12:00 15,3 C 71 % 1011,8 hPa 0,0 l/m 6,9 km/h (2 Bft) N-NO 10,1 C 14,7 C 14,2 km/h (3 Bft)
04.11.2017 13:00 15,6 C 68 % 1011,3 hPa 0,0 l/m 7,1 km/h (2 Bft) O-NO 9,8 C 15,2 C 15,7 km/h (3 Bft)
04.11.2017 14:00 15,8 C 68 % 1011,0 hPa 0,0 l/m 5,2 km/h (1 Bft) N-NO 9,9 C 15,7 C 12,9 km/h (3 Bft)
04.11.2017 15:00 15,6 C 69 % 1010,8 hPa 0,0 l/m 2,2 km/h (1 Bft) O-NO 10,0 C 15,6 C 6,7 km/h (2 Bft)
04.11.2017 16:00 13,6 C 79 % 1010,8 hPa 0,0 l/m 0,3 km/h (0 Bft) NO 9,9 C 13,6 C 1,3 km/h (1 Bft)
04.11.2017 17:00 12,5 C 82 % 1010,9 hPa 0,0 l/m 1,8 km/h (1 Bft) O-NO 9,4 C 12,5 C 5,8 km/h (2 Bft)
04.11.2017 18:00 12,5 C 80 % 1011,1 hPa 0,0 l/m 2,1 km/h (1 Bft) O-NO 9,2 C 12,5 C 6,0 km/h (2 Bft)
04.11.2017 19:00 11,1 C 84 % 1011,0 hPa 0,0 l/m 1,9 km/h (1 Bft) O-NO 8,5 C 11,1 C 6,3 km/h (2 Bft)
04.11.2017 20:00 9,8 C 88 % 1010,6 hPa 0,0 l/m 1,3 km/h (1 Bft) N-NO 7,8 C 9,8 C 3,7 km/h (1 Bft)
04.11.2017 21:00 8,2 C 91 % 1010,5 hPa 0,0 l/m 0,3 km/h (0 Bft) O-NO 6,8 C 8,2 C 1,9 km/h (1 Bft)
04.11.2017 22:00 7,3 C 93 % 1010,0 hPa 0,0 l/m 0,2 km/h (0 Bft) O-NO 6,2 C 7,3 C 1,3 km/h (1 Bft)
04.11.2017 23:00 7,7 C 93 % 1009,1 hPa 0,0 l/m 0,6 km/h (0 Bft) O-NO 6,7 C 7,7 C 2,5 km/h (1 Bft)
05.11.2017 00:00 7,6 C 92 % 1008,4 hPa 0,0 l/m 0,1 km/h (0 Bft) O-NO 6,4 C 7,6 C 0,7 km/h (0 Bft)
05.11.2017 01:00 7,3 C 95 % 1007,9 hPa 0,0 l/m 0,1 km/h (0 Bft) O-NO 6,5 C 7,3 C 0,8 km/h (0 Bft)
05.11.2017 02:00 9,4 C 93 % 1007,7 hPa 0,0 l/m 3,5 km/h (1 Bft) O-NO 8,4 C 9,4 C 9,8 km/h (2 Bft)
05.11.2017 03:00 10,3 C 89 % 1007,0 hPa 0,0 l/m 3,9 km/h (1 Bft) O-NO 8,6 C 10,3 C 11,9 km/h (2 Bft)
05.11.2017 04:00 10,1 C 89 % 1006,7 hPa 0,8 l/m 3,5 km/h (1 Bft) O 8,4 C 10,1 C 11,5 km/h (2 Bft)
05.11.2017 05:00 9,6 C 92 % 1006,1 hPa 0,0 l/m 4,3 km/h (1 Bft) O-NO 8,3 C 9,6 C 11,3 km/h (2 Bft)
05.11.2017 06:00 9,5 C 93 % 1005,8 hPa 1,5 l/m 3,0 km/h (1 Bft) O 8,3 C 9,5 C 9,3 km/h (2 Bft)
05.11.2017 07:00 9,3 C 94 % 1005,5 hPa 0,5 l/m 2,3 km/h (1 Bft) NO 8,4 C 9,3 C 8,0 km/h (2 Bft)
05.11.2017 08:00 9,3 C 95 % 1005,5 hPa 0,5 l/m 1,9 km/h (1 Bft) O-NO 8,5 C 9,3 C 6,3 km/h (2 Bft)
05.11.2017 09:00 9,2 C 94 % 1005,7 hPa 2,0 l/m 5,4 km/h (2 Bft) NO 8,4 C 9,0 C 15,4 km/h (3 Bft)
05.11.2017 10:00 7,2 C 93 % 1007,3 hPa 1,8 l/m 5,2 km/h (1 Bft) O-NO 6,1 C 7,2 C 13,7 km/h (3 Bft)
05.11.2017 11:00 6,2 C 93 % 1008,4 hPa 0,5 l/m 3,5 km/h (1 Bft) O-SO 5,2 C 6,2 C 9,7 km/h (2 Bft)
05.11.2017 12:00 5,9 C 93 % 1008,7 hPa 0,5 l/m 4,0 km/h (1 Bft) O-NO 4,8 C 5,8 C 10,9 km/h (2 Bft)
05.11.2017 13:00 5,5 C 93 % 1009,5 hPa 0,3 l/m 4,0 km/h (1 Bft) O 4,4 C 5,5 C 11,9 km/h (2 Bft)
05.11.2017 14:00 5,1 C 93 % 1010,7 hPa 0,5 l/m 4,0 km/h (1 Bft) O-NO 4,0 C 5,1 C 12,5 km/h (2 Bft)
05.11.2017 15:00 4,9 C 94 % 1011,9 hPa 0,3 l/m 1,4 km/h (1 Bft) O 4,0 C 4,9 C 5,2 km/h (1 Bft)
05.11.2017 16:00 4,6 C 92 % 1012,3 hPa 0,0 l/m 1,6 km/h (1 Bft) O-NO 3,4 C 4,6 C 6,0 km/h (2 Bft)
05.11.2017 17:00 4,0 C 94 % 1013,0 hPa 0,0 l/m 0,3 km/h (0 Bft) O-NO 3,0 C 4,0 C 2,3 km/h (1 Bft)
05.11.2017 18:00 3,8 C 95 % 1013,6 hPa 0,0 l/m 0,3 km/h (0 Bft) N-NO 3,1 C 3,8 C 1,5 km/h (1 Bft)
05.11.2017 19:00 3,8 C 96 % 1014,3 hPa 1,3 l/m 0,3 km/h (0 Bft) N-NO 3,3 C 3,8 C 1,9 km/h (1 Bft)
05.11.2017 20:00 3,3 C 95 % 1014,8 hPa 1,0 l/m 0,8 km/h (0 Bft) O 2,6 C 3,3 C 3,1 km/h (1 Bft)
05.11.2017 21:00 3,0 C 95 % 1015,2 hPa 0,8 l/m 1,4 km/h (1 Bft) O 2,3 C 3,0 C 4,3 km/h (1 Bft)
05.11.2017 22:00 2,6 C 96 % 1015,4 hPa 0,5 l/m 1,3 km/h (1 Bft) O 2,0 C 2,6 C 4,1 km/h (1 Bft)
05.11.2017 23:00 2,3 C 96 % 1015,8 hPa 0,8 l/m 1,1 km/h (0 Bft) O 1,7 C 2,3 C 3,0 km/h (1 Bft)
Min-Datum _ 31.10.17 01.11.17 05.11.17 - 05.11.17 - 31.10.17 31.10.17 05.11.17
_ Min-Zeit 07:25 12:30 09:00 - 23:53 - 07:25 07:25 23:53
Minimum _ -3,7 C 53 % 1005,4 hPa - 0,0 km/h (0 Bft) - -4,4 C -3,7 C 0,0 km/h (0 Bft)
Max-Datum _ 01.11.17 04.11.17 30.10.17 05.11.17 04.11.17 - 04.11.17 01.11.17 04.11.17
_ Max-Zeit 15:10 08:00 22:10 09:35 11:59 - 11:10 15:10 11:59
Maximum _ 17,4 C 98 % 1029,3 hPa 2,0 l/m 16,1 km/h
NO (3 Bft)
- 10,6 C 17,4 C 25,7 km/h
NO (4 Bft)
Durchschnitt _ 6,1 C 87 % 1018,8 hPa #14,0 l/m 1,3 km/h (1 Bft) O 4,0 C 6,1 C 3,8 km/h (1 Bft)